createdAt,value
2018-03-28T00:00:22.765Z,4.72
2018-03-28T00:02:51.439Z,4.58
2018-03-28T00:05:19.834Z,4.63
2018-03-28T00:07:48.327Z,4.57
2018-03-28T00:10:16.745Z,4.57
2018-03-28T00:12:45.158Z,4.49
2018-03-28T00:15:14.338Z,4.36
2018-03-28T00:17:42.761Z,4.28
2018-03-28T00:20:11.235Z,4.42
2018-03-28T00:22:39.767Z,4.45
2018-03-28T00:25:08.146Z,4.40
2018-03-28T00:27:36.527Z,4.48
2018-03-28T00:30:04.910Z,4.49
2018-03-28T00:32:33.286Z,4.38
2018-03-28T00:35:01.637Z,4.45
2018-03-28T00:37:30.020Z,4.56
2018-03-28T00:39:58.521Z,4.46
2018-03-28T00:42:26.945Z,4.35
2018-03-28T00:44:56.755Z,4.24
2018-03-28T00:47:25.341Z,4.34
2018-03-28T00:49:53.694Z,4.32
2018-03-28T00:52:22.358Z,4.32
2018-03-28T00:54:50.741Z,4.33
2018-03-28T00:57:19.289Z,4.41
2018-03-28T00:59:47.902Z,4.21
2018-03-28T01:02:16.287Z,4.16
2018-03-28T01:04:44.661Z,4.10
2018-03-28T01:07:13.179Z,4.21
2018-03-28T01:09:41.567Z,4.14
2018-03-28T01:12:09.941Z,4.28
2018-03-28T01:14:38.339Z,4.28
2018-03-28T01:17:06.909Z,4.22
2018-03-28T01:19:35.498Z,4.22
2018-03-28T01:22:03.895Z,4.18
2018-03-28T01:24:32.260Z,4.10
2018-03-28T01:27:00.653Z,4.17
2018-03-28T01:29:29.366Z,4.01
2018-03-28T01:31:57.760Z,4.01
2018-03-28T01:34:26.169Z,4.02
2018-03-28T01:36:55.342Z,3.89
2018-03-28T01:39:23.690Z,3.95
2018-03-28T01:41:52.219Z,3.94
2018-03-28T01:44:20.668Z,3.95
2018-03-28T01:46:49.098Z,3.94
2018-03-28T01:49:17.475Z,3.97
2018-03-28T01:51:45.890Z,3.87
2018-03-28T01:54:14.347Z,3.93
2018-03-28T01:56:42.745Z,3.87
2018-03-28T01:59:11.272Z,3.75
2018-03-28T02:01:39.637Z,3.67
2018-03-28T02:04:08.037Z,3.70
2018-03-28T02:06:36.455Z,3.69
2018-03-28T02:09:05.635Z,3.60
2018-03-28T02:11:34.116Z,3.56
2018-03-28T02:14:02.510Z,3.63
2018-03-28T02:16:30.931Z,3.65
2018-03-28T02:18:59.417Z,3.73
2018-03-28T02:21:27.846Z,3.78
2018-03-28T02:23:56.233Z,3.75
2018-03-28T02:26:25.667Z,3.85
2018-03-28T02:28:54.082Z,3.81
2018-03-28T02:31:22.439Z,3.86
2018-03-28T02:33:50.805Z,3.97
2018-03-28T02:36:19.234Z,3.81
2018-03-28T02:38:48.659Z,3.94
2018-03-28T02:41:17.892Z,3.95
2018-03-28T02:43:48.059Z,3.97
2018-03-28T02:46:16.945Z,4.02
2018-03-28T02:48:46.023Z,4.00
2018-03-28T02:51:14.579Z,3.94
2018-03-28T02:53:43.105Z,3.89
2018-03-28T02:56:11.484Z,3.84
2018-03-28T02:58:39.874Z,3.81
2018-03-28T03:01:08.438Z,3.94
2018-03-28T03:03:37.944Z,3.91
2018-03-28T03:06:08.277Z,3.87
2018-03-28T03:08:36.894Z,3.75
2018-03-28T03:11:05.300Z,3.67
2018-03-28T03:13:34.545Z,3.71
2018-03-28T03:16:03.660Z,3.68
2018-03-28T03:18:32.060Z,3.79
2018-03-28T03:21:00.470Z,3.85
2018-03-28T03:23:28.992Z,3.68
2018-03-28T03:25:57.333Z,3.74
2018-03-28T03:28:26.050Z,3.66
2018-03-28T03:30:54.677Z,3.69
2018-03-28T03:33:23.079Z,3.70
2018-03-28T03:35:51.800Z,3.69
2018-03-28T03:38:20.283Z,3.67
2018-03-28T03:40:48.730Z,3.59
2018-03-28T03:43:17.186Z,3.57
2018-03-28T03:45:45.591Z,3.73
2018-03-28T03:48:13.959Z,3.67
2018-03-28T03:50:42.850Z,3.70
2018-03-28T03:53:11.315Z,3.68
2018-03-28T03:55:39.758Z,3.59
2018-03-28T03:58:08.308Z,3.62
2018-03-28T04:00:36.686Z,3.66
2018-03-28T04:03:05.096Z,3.70
2018-03-28T04:05:33.555Z,3.73
2018-03-28T04:08:01.889Z,3.76
2018-03-28T04:10:31.938Z,3.84
2018-03-28T04:13:00.415Z,3.81
2018-03-28T04:15:28.799Z,3.82
2018-03-28T04:17:57.247Z,3.71
2018-03-28T04:20:25.735Z,3.69
2018-03-28T04:22:54.139Z,3.68
2018-03-28T04:25:22.509Z,3.70
2018-03-28T04:27:51.176Z,3.69
2018-03-28T04:30:19.561Z,3.69
2018-03-28T04:32:47.997Z,3.62
2018-03-28T04:35:16.622Z,3.64
2018-03-28T04:37:45.004Z,3.67
2018-03-28T04:40:13.470Z,3.63
2018-03-28T04:42:41.918Z,3.61
2018-03-28T04:45:10.300Z,3.63
2018-03-28T04:47:38.699Z,3.50
2018-03-28T04:50:07.119Z,3.57
2018-03-28T04:52:35.656Z,3.46
2018-03-28T04:55:04.415Z,3.43
2018-03-28T04:57:32.827Z,3.50
2018-03-28T05:00:01.213Z,3.40
2018-03-28T05:02:29.637Z,3.42
2018-03-28T05:04:58.529Z,3.48
2018-03-28T05:07:26.930Z,3.49
2018-03-28T05:10:06.297Z,3.56
2018-03-28T05:12:34.716Z,3.55
2018-03-28T05:15:03.240Z,3.53
2018-03-28T05:17:31.713Z,3.52
2018-03-28T05:20:00.092Z,3.47
2018-03-28T05:22:28.583Z,3.53
2018-03-28T05:24:57.149Z,3.71
2018-03-28T05:27:25.733Z,3.62
2018-03-28T05:29:54.103Z,3.62
2018-03-28T05:32:22.543Z,3.56
2018-03-28T05:34:51.121Z,3.67
2018-03-28T05:37:19.483Z,3.70
2018-03-28T05:39:48.105Z,3.57
2018-03-28T05:42:16.522Z,3.60
2018-03-28T05:44:44.908Z,3.61
2018-03-28T05:47:13.547Z,3.80
2018-03-28T05:49:42.208Z,3.80
2018-03-28T05:52:11.119Z,3.87
2018-03-28T05:54:39.551Z,3.86
2018-03-28T05:57:08.033Z,3.78
2018-03-28T05:59:36.377Z,3.84
2018-03-28T06:02:04.868Z,3.99
2018-03-28T06:04:33.299Z,4.01
2018-03-28T06:07:02.776Z,3.92
2018-03-28T06:09:31.190Z,4.06
2018-03-28T06:11:59.591Z,4.03
2018-03-28T06:14:27.983Z,4.16
2018-03-28T06:16:56.406Z,4.08
2018-03-28T06:19:24.880Z,4.00
2018-03-28T06:21:53.288Z,4.04
2018-03-28T06:24:22.265Z,4.10
2018-03-28T06:26:50.775Z,4.18
2018-03-28T06:29:19.275Z,4.27
2018-03-28T06:31:49.326Z,4.17
2018-03-28T06:34:17.857Z,4.20
2018-03-28T06:36:46.514Z,4.23
2018-03-28T06:39:15.512Z,4.30
2018-03-28T06:41:44.179Z,4.32
2018-03-28T06:44:12.573Z,4.22
2018-03-28T06:46:41.086Z,4.49
2018-03-28T06:49:09.825Z,4.57
2018-03-28T06:51:38.253Z,4.44
2018-03-28T06:56:57.609Z,4.57
2018-03-28T06:59:25.972Z,4.61
2018-03-28T07:01:54.483Z,4.41
2018-03-28T07:04:23.000Z,4.52
2018-03-28T07:06:51.801Z,4.37
2018-03-28T07:09:20.210Z,4.32
2018-03-28T07:11:49.058Z,4.40
2018-03-28T07:14:17.490Z,4.48
2018-03-28T07:16:45.947Z,4.55
2018-03-28T07:19:15.695Z,4.60
2018-03-28T07:21:44.068Z,4.65
2018-03-28T07:24:12.503Z,4.65
2018-03-28T07:26:41.123Z,4.78
2018-03-28T07:29:09.511Z,4.80
2018-03-28T07:31:37.898Z,4.91
2018-03-28T07:34:06.274Z,4.93
2018-03-28T07:36:34.663Z,4.94
2018-03-28T07:39:03.114Z,5.00
2018-03-28T07:41:31.899Z,4.96
2018-03-28T07:44:00.247Z,5.05
2018-03-28T07:46:29.569Z,5.11
2018-03-28T07:48:58.365Z,5.21
2018-03-28T07:51:27.687Z,5.08
2018-03-28T07:53:56.144Z,5.06
2018-03-28T07:56:24.697Z,5.12
2018-03-28T07:58:53.166Z,5.13
2018-03-28T08:01:21.592Z,5.06
2018-03-28T08:03:50.702Z,4.97
2018-03-28T08:06:21.001Z,4.91
2018-03-28T08:08:49.554Z,4.96
2018-03-28T08:11:18.110Z,4.74
2018-03-28T08:13:46.619Z,4.80
2018-03-28T08:16:15.588Z,4.71
2018-03-28T08:18:44.036Z,4.81
2018-03-28T08:21:12.650Z,4.78
2018-03-28T08:23:41.127Z,4.78
2018-03-28T08:26:09.906Z,4.93
2018-03-28T08:28:38.415Z,4.98
2018-03-28T08:31:07.769Z,4.97
2018-03-28T08:33:37.873Z,5.05
2018-03-28T08:36:06.285Z,4.96
2018-03-28T08:38:34.687Z,4.98
2018-03-28T08:41:03.644Z,5.04
2018-03-28T08:43:31.999Z,5.01
2018-03-28T08:46:00.378Z,5.02
2018-03-28T08:48:28.773Z,5.10
2018-03-28T08:50:57.299Z,5.08
2018-03-28T08:53:25.677Z,5.01
2018-03-28T08:55:54.060Z,5.18
2018-03-28T08:58:27.527Z,4.98
2018-03-28T09:00:56.878Z,5.17
2018-03-28T09:03:25.350Z,5.23
2018-03-28T09:05:53.876Z,5.37
2018-03-28T09:08:22.770Z,5.38
2018-03-28T09:10:51.217Z,5.24
2018-03-28T09:13:19.678Z,5.19
2018-03-28T09:15:48.523Z,5.43
2018-03-28T09:18:17.069Z,5.53
2018-03-28T09:20:46.508Z,5.61
2018-03-28T09:23:15.073Z,5.66
2018-03-28T09:25:43.643Z,5.80
2018-03-28T09:28:12.091Z,5.79
2018-03-28T09:30:41.360Z,5.55
2018-03-28T09:33:09.746Z,5.74
2018-03-28T09:35:38.148Z,5.83
2018-03-28T09:38:07.451Z,5.78
2018-03-28T09:40:35.862Z,5.71
2018-03-28T09:43:04.352Z,5.92
2018-03-28T09:45:33.026Z,5.88
2018-03-28T09:48:01.455Z,5.97
2018-03-28T09:50:30.570Z,5.70
2018-03-28T09:52:59.666Z,5.70
2018-03-28T09:55:28.245Z,5.59
2018-03-28T09:57:56.724Z,5.77
2018-03-28T10:00:27.328Z,5.80
2018-03-28T10:03:01.218Z,5.83
2018-03-28T10:05:35.461Z,5.73
2018-03-28T10:08:04.077Z,5.48
2018-03-28T10:10:32.470Z,5.42
2018-03-28T10:13:00.908Z,5.38
2018-03-28T10:15:29.787Z,5.41
2018-03-28T10:17:58.159Z,5.32
2018-03-28T10:20:26.951Z,5.41
2018-03-28T10:22:55.652Z,5.42
2018-03-28T10:25:24.140Z,5.42
2018-03-28T10:27:53.364Z,5.36
2018-03-28T10:30:22.951Z,5.30
2018-03-28T10:32:51.828Z,5.26
2018-03-28T10:35:22.625Z,5.24
2018-03-28T10:37:51.083Z,5.32
2018-03-28T10:40:19.569Z,5.27
2018-03-28T10:42:48.044Z,5.39
2018-03-28T10:45:17.108Z,5.42
2018-03-28T10:47:45.708Z,5.38
2018-03-28T10:50:14.705Z,5.46
2018-03-28T10:52:43.188Z,5.32
2018-03-28T10:55:11.710Z,5.38
2018-03-28T10:57:40.550Z,5.35
2018-03-28T11:00:08.878Z,5.24
2018-03-28T11:02:37.342Z,5.36
2018-03-28T11:05:06.153Z,5.31
2018-03-28T11:07:34.517Z,5.15
2018-03-28T11:10:04.602Z,5.10
2018-03-28T11:12:33.177Z,5.28
2018-03-28T11:15:01.561Z,5.26
2018-03-28T11:17:30.030Z,5.18
2018-03-28T11:19:58.607Z,5.17
2018-03-28T11:22:27.860Z,5.06
2018-03-28T11:24:56.637Z,5.04
2018-03-28T11:27:25.213Z,5.12
2018-03-28T11:29:53.805Z,5.17
2018-03-28T11:32:22.477Z,5.14
2018-03-28T11:34:50.997Z,5.24
2018-03-28T11:37:19.616Z,5.41
2018-03-28T11:39:48.473Z,5.50
2018-03-28T11:42:17.182Z,5.59
2018-03-28T11:44:45.777Z,5.43
2018-03-28T11:47:14.396Z,5.60
2018-03-28T11:49:44.751Z,5.52
2018-03-28T11:52:13.530Z,5.46
2018-03-28T11:54:42.383Z,5.49
2018-03-28T11:57:11.513Z,5.73
2018-03-28T11:59:41.279Z,5.73
2018-03-28T12:02:10.219Z,5.62
2018-03-28T12:04:38.750Z,5.84
2018-03-28T12:07:07.361Z,6.04
2018-03-28T12:09:36.018Z,6.09
2018-03-28T12:12:04.530Z,6.13
2018-03-28T12:14:32.993Z,5.86
2018-03-28T12:17:01.462Z,5.90
2018-03-28T12:19:30.020Z,5.87
2018-03-28T12:21:58.659Z,5.99
2018-03-28T12:24:27.552Z,6.03
2018-03-28T12:26:56.302Z,6.01
2018-03-28T12:29:25.351Z,6.34
2018-03-28T12:31:54.009Z,6.41
2018-03-28T12:34:22.672Z,6.36
2018-03-28T12:36:51.843Z,6.05
2018-03-28T12:39:20.374Z,5.79
2018-03-28T12:41:49.278Z,5.53
2018-03-28T12:44:17.855Z,5.42
2018-03-28T12:46:46.229Z,5.25
2018-03-28T12:49:15.339Z,5.15
2018-03-28T12:51:43.960Z,5.33
2018-03-28T12:54:12.616Z,5.42
2018-03-28T12:56:42.620Z,5.60
2018-03-28T12:59:11.509Z,5.61
2018-03-28T13:01:40.188Z,5.60
2018-03-28T13:04:08.635Z,5.48
2018-03-28T13:06:37.957Z,5.56
2018-03-28T13:09:06.503Z,5.32
2018-03-28T13:11:35.255Z,5.29
2018-03-28T13:14:03.663Z,5.36
2018-03-28T13:16:32.035Z,5.18
2018-03-28T13:19:01.038Z,5.11
2018-03-28T13:21:29.958Z,5.21
2018-03-28T13:23:59.056Z,5.30
2018-03-28T13:26:27.506Z,5.18
2018-03-28T13:28:55.981Z,5.32
2018-03-28T13:31:24.415Z,5.23
2018-03-28T13:33:52.884Z,5.24
2018-03-28T13:36:21.395Z,5.34
2018-03-28T13:38:53.863Z,5.33
2018-03-28T13:41:22.479Z,5.21
2018-03-28T13:43:51.176Z,5.21
2018-03-28T13:46:20.772Z,5.13
2018-03-28T13:48:49.740Z,5.07
2018-03-28T13:51:26.920Z,5.12
2018-03-28T13:53:55.899Z,5.15
2018-03-28T13:56:25.493Z,5.29
2018-03-28T13:58:53.996Z,5.20
2018-03-28T14:01:22.512Z,5.16
2018-03-28T14:03:51.181Z,5.10
2018-03-28T14:06:20.206Z,5.06
2018-03-28T14:08:48.938Z,5.10
2018-03-28T14:11:18.642Z,4.93
2018-03-28T14:13:47.459Z,4.85
2018-03-28T14:16:16.459Z,4.86
2018-03-28T14:18:44.877Z,4.91
2018-03-28T14:21:13.634Z,4.89
2018-03-28T14:23:42.328Z,4.81
2018-03-28T14:26:10.962Z,4.91
2018-03-28T14:28:42.672Z,4.91
2018-03-28T14:31:11.512Z,4.85
2018-03-28T14:33:40.448Z,4.95
2018-03-28T14:36:10.627Z,4.82
2018-03-28T14:38:39.032Z,4.89
2018-03-28T14:41:07.615Z,4.90
2018-03-28T14:43:36.772Z,4.93
2018-03-28T14:46:05.199Z,5.00
2018-03-28T14:48:34.612Z,5.05
2018-03-28T14:51:03.348Z,5.06
2018-03-28T14:53:31.916Z,5.02
2018-03-28T14:56:00.347Z,4.89
2018-03-28T14:58:28.900Z,4.91
2018-03-28T15:00:57.278Z,4.88
2018-03-28T15:03:26.365Z,5.01
2018-03-28T15:05:55.387Z,4.82
2018-03-28T15:08:23.998Z,4.95
2018-03-28T15:10:52.432Z,4.90
2018-03-28T15:13:21.933Z,4.77
2018-03-28T15:15:50.360Z,4.75
2018-03-28T15:18:18.946Z,4.89
2018-03-28T15:20:48.655Z,4.79
2018-03-28T15:23:17.812Z,4.76
2018-03-28T15:25:46.348Z,4.84
2018-03-28T15:28:15.301Z,4.92
2018-03-28T15:30:44.679Z,4.85
2018-03-28T15:33:13.256Z,4.87
2018-03-28T15:35:42.149Z,4.62
2018-03-28T15:38:25.648Z,4.66
2018-03-28T15:41:01.770Z,4.60
2018-03-28T15:43:31.618Z,4.63
2018-03-28T15:46:00.589Z,4.59
2018-03-28T15:48:30.232Z,4.54
2018-03-28T15:50:58.679Z,4.39
2018-03-28T15:53:27.058Z,4.44
2018-03-28T15:55:56.520Z,4.44
2018-03-28T15:58:25.156Z,4.41
2018-03-28T16:00:54.874Z,4.46
2018-03-28T16:03:24.299Z,4.44
2018-03-28T16:05:53.036Z,4.46
2018-03-28T16:08:21.754Z,4.42
2018-03-28T16:10:50.169Z,4.35
2018-03-28T16:13:18.659Z,4.49
2018-03-28T16:15:47.585Z,4.51
2018-03-28T16:18:16.876Z,4.57
2018-03-28T16:20:45.672Z,4.65
2018-03-28T16:23:18.111Z,4.70
2018-03-28T16:25:46.974Z,4.58
2018-03-28T16:28:15.704Z,4.51
2018-03-28T16:30:44.856Z,4.52
2018-03-28T16:33:14.133Z,4.45
2018-03-28T16:35:43.460Z,4.51
2018-03-28T16:38:12.953Z,4.51
2018-03-28T16:40:41.652Z,4.63
2018-03-28T16:43:12.234Z,4.52
2018-03-28T16:45:42.964Z,4.59
2018-03-28T16:48:11.554Z,4.52
2018-03-28T16:50:40.235Z,4.53
2018-03-28T16:53:09.140Z,4.60
2018-03-28T16:55:37.608Z,4.51
2018-03-28T16:58:05.975Z,4.49
2018-03-28T17:00:34.625Z,4.53
2018-03-28T17:03:03.024Z,4.53
2018-03-28T17:05:31.651Z,4.45
2018-03-28T17:08:00.218Z,4.37
2018-03-28T17:10:28.889Z,4.39
2018-03-28T17:12:58.154Z,4.48
2018-03-28T17:15:27.124Z,4.53
2018-03-28T17:17:56.252Z,4.46
2018-03-28T17:20:24.990Z,4.45
2018-03-28T17:22:55.702Z,4.44
2018-03-28T17:25:24.725Z,4.39
2018-03-28T17:27:53.207Z,4.44
2018-03-28T17:30:21.943Z,4.36
2018-03-28T17:32:50.843Z,4.47
2018-03-28T17:35:20.040Z,4.43
2018-03-28T17:37:48.808Z,4.48
2018-03-28T17:40:17.511Z,4.42
2018-03-28T17:42:46.463Z,4.35
2018-03-28T17:45:16.012Z,4.35
2018-03-28T17:47:45.419Z,4.27
2018-03-28T17:50:14.621Z,4.19
2018-03-28T17:52:45.122Z,4.23
2018-03-28T17:55:14.461Z,4.18
2018-03-28T17:57:43.261Z,4.14
2018-03-28T18:00:12.103Z,4.04
2018-03-28T18:02:41.855Z,4.00
2018-03-28T18:05:10.402Z,3.93
2018-03-28T18:07:39.075Z,3.78
2018-03-28T18:10:08.002Z,3.75
2018-03-28T18:12:36.648Z,3.70
2018-03-28T18:15:05.045Z,3.71
2018-03-28T18:17:33.543Z,3.38
2018-03-28T18:20:02.044Z,3.17
2018-03-28T18:22:30.616Z,3.19
2018-03-28T18:24:59.103Z,3.19
2018-03-28T18:27:27.774Z,3.15
2018-03-28T18:29:57.271Z,2.96
2018-03-28T18:32:26.178Z,2.89
2018-03-28T18:34:55.664Z,2.76
2018-03-28T18:37:24.514Z,2.58
2018-03-28T18:39:56.240Z,2.55
2018-03-28T18:42:26.607Z,2.52
2018-03-28T18:44:55.042Z,2.58
2018-03-28T18:47:23.976Z,2.52
2018-03-28T18:49:54.527Z,2.45
2018-03-28T18:52:25.553Z,2.49
2018-03-28T18:54:55.757Z,2.41
2018-03-28T18:57:24.666Z,2.34
2018-03-28T18:59:53.205Z,2.35
2018-03-28T19:02:23.156Z,2.32
2018-03-28T19:04:52.373Z,2.26
2018-03-28T19:07:21.296Z,2.16
2018-03-28T19:09:50.046Z,2.09
2018-03-28T19:12:18.622Z,2.01
2018-03-28T19:14:47.253Z,2.14
2018-03-28T19:17:16.614Z,2.10
2018-03-28T19:19:49.943Z,1.95
2018-03-28T19:22:19.378Z,1.92
2018-03-28T19:24:47.986Z,1.89
2018-03-28T19:27:17.492Z,1.90
2018-03-28T19:29:47.107Z,1.89
2018-03-28T19:32:15.683Z,1.89
2018-03-28T19:34:44.274Z,1.94
2018-03-28T19:37:12.941Z,1.86
2018-03-28T19:39:42.904Z,1.76
2018-03-28T19:42:11.766Z,1.80
2018-03-28T19:44:41.276Z,1.81
2018-03-28T19:47:09.953Z,1.79
2018-03-28T19:49:38.409Z,1.77
2018-03-28T19:52:06.854Z,1.76
2018-03-28T19:54:35.333Z,1.82
2018-03-28T19:57:03.737Z,1.82
2018-03-28T19:59:32.927Z,1.79
2018-03-28T20:02:02.510Z,1.78
2018-03-28T20:04:30.905Z,1.68
2018-03-28T20:06:59.866Z,1.70
2018-03-28T20:09:28.286Z,1.75
2018-03-28T20:11:56.823Z,1.67
2018-03-28T20:14:25.355Z,1.61
2018-03-28T20:16:54.060Z,1.63
2018-03-28T20:19:22.510Z,1.68
2018-03-28T20:21:51.320Z,1.63
2018-03-28T20:24:19.841Z,1.57
2018-03-28T20:26:48.546Z,1.58
2018-03-28T20:29:17.618Z,1.66
2018-03-28T20:31:46.181Z,1.70
2018-03-28T20:34:14.611Z,1.58
2018-03-28T20:36:44.196Z,1.63
2018-03-28T20:39:14.006Z,1.48
2018-03-28T20:41:51.131Z,1.42
2018-03-28T20:44:22.702Z,1.43
2018-03-28T20:46:52.347Z,1.41
2018-03-28T20:49:20.963Z,1.45
2018-03-28T20:51:49.565Z,1.42
2018-03-28T20:54:18.254Z,1.44
2018-03-28T20:56:46.789Z,1.42
2018-03-28T20:59:15.837Z,1.38
2018-03-28T21:01:44.671Z,1.43
2018-03-28T21:04:13.665Z,1.41
2018-03-28T21:06:45.637Z,1.39
2018-03-28T21:09:14.825Z,1.44
2018-03-28T21:11:43.416Z,1.44
2018-03-28T21:14:12.624Z,1.43
2018-03-28T21:16:41.044Z,1.33
2018-03-28T21:19:09.681Z,1.46
2018-03-28T21:21:38.321Z,1.46
2018-03-28T21:24:06.930Z,1.40
2018-03-28T21:26:36.511Z,1.28
2018-03-28T21:29:04.877Z,1.25
2018-03-28T21:31:33.596Z,1.29
2018-03-28T21:34:02.000Z,1.25
2018-03-28T21:36:30.366Z,1.36
2018-03-28T21:38:58.752Z,1.35
2018-03-28T21:41:27.203Z,1.38
2018-03-28T21:43:55.553Z,1.38
2018-03-28T21:46:24.070Z,1.35
2018-03-28T21:48:52.572Z,1.39
2018-03-28T21:51:21.245Z,1.29
2018-03-28T21:53:50.008Z,1.33
2018-03-28T21:56:20.730Z,1.25
2018-03-28T21:58:49.273Z,1.23
2018-03-28T22:01:18.981Z,1.22
2018-03-28T22:03:47.520Z,1.20
2018-03-28T22:06:16.106Z,1.21
2018-03-28T22:08:45.754Z,1.22
2018-03-28T22:11:14.192Z,1.15
2018-03-28T22:13:49.093Z,1.15
2018-03-28T22:16:17.561Z,1.20
2018-03-28T22:18:46.015Z,1.18
2018-03-28T22:21:14.862Z,1.11
2018-03-28T22:23:43.420Z,1.12
2018-03-28T22:26:12.113Z,1.14
2018-03-28T22:28:41.564Z,1.20
2018-03-28T22:31:09.975Z,1.17
2018-03-28T22:33:39.457Z,1.12
2018-03-28T22:36:07.879Z,1.07
2018-03-28T22:38:36.230Z,1.13
2018-03-28T22:41:04.650Z,1.12
2018-03-28T22:43:33.129Z,1.10
2018-03-28T22:46:01.489Z,1.11
2018-03-28T22:48:29.865Z,1.04
2018-03-28T22:50:59.302Z,1.04
2018-03-28T22:53:27.720Z,1.08
2018-03-28T22:55:56.090Z,1.04
2018-03-28T22:58:24.513Z,1.08
2018-03-28T23:00:52.954Z,1.08
2018-03-28T23:03:21.538Z,0.99
2018-03-28T23:05:50.253Z,0.98
2018-03-28T23:08:18.739Z,1.00
2018-03-28T23:10:47.289Z,1.07
2018-03-28T23:13:17.842Z,1.08
2018-03-28T23:15:46.293Z,1.04
2018-03-28T23:18:15.462Z,1.09
2018-03-28T23:20:45.109Z,1.06
2018-03-28T23:23:13.691Z,1.06
2018-03-28T23:25:42.226Z,1.07
2018-03-28T23:28:10.777Z,1.09
2018-03-28T23:30:39.165Z,1.06
2018-03-28T23:33:07.567Z,1.05
2018-03-28T23:35:35.983Z,1.06
2018-03-28T23:38:04.324Z,1.04
2018-03-28T23:40:32.732Z,1.08
2018-03-28T23:43:01.653Z,1.05
2018-03-28T23:45:30.075Z,1.05
2018-03-28T23:47:58.471Z,1.06
2018-03-28T23:50:27.772Z,1.00
2018-03-28T23:52:56.189Z,1.04
2018-03-28T23:55:24.585Z,1.01
2018-03-28T23:57:53.628Z,0.93
